Terminal Aerodrome Forecast
Issued by NWS Shreveport, LA

Home | Current Version | Previous Version | Text Only | Print | Product List | Glossary On
Versions: 1 2 3 4 5 6 7 8 9 10 11 12 13 14
000
FTUS44 KSHV 012300
TAFTXK
TAF
KTXK 012320Z 0200/0224 16005KT P6SM FEW050 SCT090
     FM020900 17006KT P6SM BKN025
      TEMPO 0210/0214 4SM BR OVC015
     FM021500 19010KT P6SM VCSH SCT025 BKN050
     FM021900 20010KT P6SM VCTS BKN050CB=

USA.gov is the U.S. government's official web portal to all federal, state and local government web resources and services.